Flamingo 4 — YQZS — position and weather

sailwx.info

Track history (hours):
 
Tides and Currents Weather Stations Pressure Air Temp Water Temp Dewpoint Dewpoint Depression Visibility Wind Speed Wind Dir Waves Ship Positions

Flamingo 4

Last reported at 2017-Nov-24 09:00 UTC. Time now 2017-Nov-24 09:25 UTC.
Position N 44°20' E 028°38'.

Length 25 m.

Type: Fishing. MMSI: 264900113.

Date/timePositionNaut miles runAvg speedWind from/ knotsBaromVisibWave heightAir tempDewpointWater temp
2017-Nov-24 09:00N 44°20' E 028°38'0 0.0
2017-Nov-24 08:30N 44°20' E 028°38'0 0.0
2017-Nov-24 08:00N 44°20' E 028°38'0 0.0
2017-Nov-24 07:30N 44°20' E 028°38'0 0.0
2017-Nov-24 07:00N 44°20' E 028°38'0 0.0
2017-Nov-24 06:30N 44°20' E 028°38'0 0.0
2017-Nov-24 06:00N 44°20' E 028°38'0 0.0
2017-Nov-24 05:30N 44°20' E 028°38'0 0.0
2017-Nov-24 05:00N 44°20' E 028°38'0 0.0
2017-Nov-24 04:30N 44°20' E 028°38'0 0.4
2017-Nov-24 04:00N 44°20' E 028°39'3 6.5
2017-Nov-24 03:30N 44°19' E 028°43'4 8.7
2017-Nov-24 03:00N 44°22' E 028°48'4 8.5
2017-Nov-24 02:30N 44°25' E 028°53'4 8.4
2017-Nov-24 02:00N 44°27' E 028°57'4 8.4
2017-Nov-24 01:30N 44°30' E 029°02'4 8.4
2017-Nov-24 01:00N 44°33' E 029°07'  
2017-Nov-20 00:31N 44°20' E 028°38'0 0.0
2017-Nov-20 00:01N 44°20' E 028°38'0 0.0
2017-Nov-19 23:31N 44°20' E 028°38'0 0.0
2017-Nov-19 23:01N 44°20' E 028°38'0 0.0
2017-Nov-19 22:31N 44°20' E 028°38'0 0.0
2017-Nov-19 22:01N 44°20' E 028°38'0 0.0
2017-Nov-19 21:31N 44°20' E 028°38'0 0.0
2017-Nov-19 21:01N 44°20' E 028°38'0 0.0
2017-Nov-19 20:31N 44°20' E 028°38'0 0.0
2017-Nov-19 20:01N 44°20' E 028°38'0 0.0
2017-Nov-19 19:30N 44°20' E 028°38'0 0.0
2017-Nov-19 19:00N 44°20' E 028°38'0 0.0
2017-Nov-19 18:31N 44°20' E 028°38'0 0.0
2017-Nov-19 18:00N 44°20' E 028°38'0 0.0
2017-Nov-19 17:31N 44°20' E 028°38'0 0.0
2017-Nov-19 17:01N 44°20' E 028°38'0 0.0
2017-Nov-19 16:30N 44°20' E 028°38'0 0.0
2017-Nov-19 16:01N 44°20' E 028°38'0 0.0
2017-Nov-19 15:31N 44°20' E 028°38'0 0.0
2017-Nov-19 15:01N 44°20' E 028°38'0 0.0
2017-Nov-19 14:31N 44°20' E 028°38'0 0.0
2017-Nov-19 14:01N 44°20' E 028°38'0 0.0
2017-Nov-19 13:30N 44°20' E 028°38'0 0.0
2017-Nov-19 13:01N 44°20' E 028°38'0 0.0
2017-Nov-19 12:31N 44°20' E 028°38'0 0.0
2017-Nov-19 12:01N 44°20' E 028°38'0 0.0
2017-Nov-19 11:31N 44°20' E 028°38'0 0.0
2017-Nov-19 11:01N 44°20' E 028°38'0 0.0
2017-Nov-19 10:30N 44°20' E 028°38'0 0.0
2017-Nov-19 10:01N 44°20' E 028°38'0 0.0
2017-Nov-19 09:31N 44°20' E 028°38'0 0.0
2017-Nov-19 09:01N 44°20' E 028°38'0 0.0
2017-Nov-19 08:30N 44°20' E 028°38'0 0.0
2017-Nov-19 08:01N 44°20' E 028°38'0 0.0
2017-Nov-19 07:30N 44°20' E 028°38'0 0.0
2017-Nov-19 07:01N 44°20' E 028°38'0 0.0
2017-Nov-19 06:31N 44°20' E 028°38'0 0.0
2017-Nov-19 06:01N 44°20' E 028°38'0 0.0
2017-Nov-19 05:31N 44°20' E 028°38'0 0.0
2017-Nov-19 05:01N 44°20' E 028°38'0 0.0
2017-Nov-19 04:30N 44°20' E 028°38'0 0.0
2017-Nov-19 04:01N 44°20' E 028°38'0 0.0
2017-Nov-19 03:31N 44°20' E 028°38'0 0.0
2017-Nov-19 03:01N 44°20' E 028°38'0 0.0
2017-Nov-19 02:31N 44°20' E 028°38'0 0.0
2017-Nov-19 02:01N 44°20' E 028°38'0 0.0
2017-Nov-19 01:30N 44°20' E 028°38'0 1.0
2017-Nov-19 01:01N 44°20' E 028°39'3 6.3
2017-Nov-19 00:31N 44°20' E 028°43'4 8.7
2017-Nov-19 00:01N 44°23' E 028°48'4 8.9
2017-Nov-18 23:31N 44°26' E 028°53'4 9.0
2017-Nov-18 23:01N 44°29' E 028°57'5 9.0
2017-Nov-18 22:31N 44°32' E 029°02'8 1.2
2017-Nov-18 16:06N 44°38' E 029°09'1 3.4
2017-Nov-18 15:54N 44°37' E 029°08'5 0.7
2017-Nov-18 08:33N 44°33' E 029°05'1 7.1
2017-Nov-18 08:28N 44°33' E 029°04'3 7.1
2017-Nov-18 08:00N 44°31' E 029°01'4 7.1
2017-Nov-18 07:29N 44°28' E 028°57'3 6.9
2017-Nov-18 07:00N 44°26' E 028°54'4 7.3
2017-Nov-18 06:31N 44°23' E 028°50'4 7.3
2017-Nov-18 06:01N 44°21' E 028°46'4 7.2
2017-Nov-18 05:31N 44°19' E 028°42'3 5.5
2017-Nov-18 05:01N 44°20' E 028°38'0 0.0
2017-Nov-18 04:31N 44°20' E 028°38'0 0.0
2017-Nov-18 04:01N 44°20' E 028°38'0 0.0
2017-Nov-18 03:31N 44°20' E 028°38'0 0.0
2017-Nov-18 03:01N 44°20' E 028°38'0 0.0
2017-Nov-18 02:30N 44°20' E 028°38'0 0.0
2017-Nov-18 02:00N 44°20' E 028°38'0 0.0
2017-Nov-18 01:30N 44°20' E 028°38'0 0.0
2017-Nov-18 01:01N 44°20' E 028°38'0 0.0
2017-Nov-18 00:31N 44°20' E 028°38'0 0.0
2017-Nov-18 00:01N 44°20' E 028°38'0 0.0
2017-Nov-17 23:31N 44°20' E 028°38'0 0.0
2017-Nov-17 23:00N 44°20' E 028°38'0 0.0
2017-Nov-17 22:31N 44°20' E 028°38'0 0.0
2017-Nov-17 22:01N 44°20' E 028°38'0 0.0
2017-Nov-17 21:31N 44°20' E 028°38'0 0.0
2017-Nov-17 21:00N 44°20' E 028°38'0 0.0
2017-Nov-17 20:31N 44°20' E 028°38'0 0.0
2017-Nov-17 20:00N 44°20' E 028°38'0 0.0
2017-Nov-17 19:31N 44°20' E 028°38'0 0.0
2017-Nov-17 19:00N 44°20' E 028°38'0 0.0
2017-Nov-17 18:31N 44°20' E 028°38'0 0.0
2017-Nov-17 18:01N 44°20' E 028°38'0 0.0
2017-Nov-17 17:31N 44°20' E 028°38'0 0.0
2017-Nov-17 17:01N 44°20' E 028°38'0 0.0
2017-Nov-17 16:31N 44°20' E 028°38'0 0.0
2017-Nov-17 16:01N 44°20' E 028°38'0 0.0
2017-Nov-17 15:31N 44°20' E 028°38'0 0.0
2017-Nov-17 15:01N 44°20' E 028°38'0 0.0
2017-Nov-17 14:31N 44°20' E 028°38'0 0.0
2017-Nov-17 14:01N 44°20' E 028°38'0 0.0
2017-Nov-17 13:31N 44°20' E 028°38'0 0.0
2017-Nov-17 13:00N 44°20' E 028°38'0 0.0
2017-Nov-17 12:31N 44°20' E 028°38'0 0.0
2017-Nov-17 12:01N 44°20' E 028°38'0 0.0
2017-Nov-17 11:31N 44°20' E 028°38'0 0.0
2017-Nov-17 11:01N 44°20' E 028°38'0 0.0
2017-Nov-17 10:31N 44°20' E 028°38'0 0.0
2017-Nov-17 10:01N 44°20' E 028°38'0 0.0
2017-Nov-17 09:31N 44°20' E 028°38'0 0.0
2017-Nov-17 09:01N 44°20' E 028°38'0 0.0
2017-Nov-17 08:31N 44°20' E 028°38'0 0.0
2017-Nov-17 08:01N 44°20' E 028°38'0 0.0
2017-Nov-17 07:30N 44°20' E 028°38'0 0.0
2017-Nov-17 07:01N 44°20' E 028°38'0 0.0
2017-Nov-17 06:31N 44°20' E 028°38'0 0.0
2017-Nov-17 06:01N 44°20' E 028°38'0 0.0
2017-Nov-17 05:31N 44°20' E 028°38'0 0.0
2017-Nov-17 05:01N 44°20' E 028°38'0 0.0
2017-Nov-17 04:31N 44°20' E 028°38'0 0.0
2017-Nov-17 04:01N 44°20' E 028°38'0 0.0
2017-Nov-17 03:31N 44°20' E 028°38'0 0.0
2017-Nov-17 03:01N 44°20' E 028°38'0 0.0
2017-Nov-17 02:31N 44°20' E 028°38'0 0.0
2017-Nov-17 02:01N 44°20' E 028°38'0 0.0
2017-Nov-17 01:31N 44°20' E 028°38'0 0.0
2017-Nov-17 01:00N 44°20' E 028°38'0 0.0
2017-Nov-17 00:31N 44°20' E 028°38'0 0.0
2017-Nov-17 00:00N 44°20' E 028°38'0 0.0
2017-Nov-16 23:31N 44°20' E 028°38'0 0.0
2017-Nov-16 23:01N 44°20' E 028°38'0 0.0
2017-Nov-16 22:31N 44°20' E 028°38'0 0.0
2017-Nov-16 22:01N 44°20' E 028°38'0 0.0
2017-Nov-16 21:31N 44°20' E 028°38'0 0.0
2017-Nov-16 21:00N 44°20' E 028°38'0 0.0
2017-Nov-16 20:31N 44°20' E 028°38'0 0.0
2017-Nov-16 20:01N 44°20' E 028°38'0 0.0
2017-Nov-16 19:31N 44°20' E 028°38'0 0.0
2017-Nov-16 19:01N 44°20' E 028°38'0 0.0
2017-Nov-16 18:31N 44°20' E 028°38'0 0.0
2017-Nov-16 18:01N 44°20' E 028°38'0 0.0
2017-Nov-16 17:31N 44°20' E 028°38'0 0.0
2017-Nov-16 17:01N 44°20' E 028°38'0 0.0
2017-Nov-16 16:31N 44°20' E 028°38'0 0.0
2017-Nov-16 16:01N 44°20' E 028°38'0 0.0
2017-Nov-16 15:30N 44°20' E 028°38'0 0.0
2017-Nov-15 06:55N 44°20' E 028°38'0 0.0
2017-Nov-15 06:31N 44°20' E 028°38'0 0.0
2017-Nov-15 06:01N 44°20' E 028°38'0 0.0
2017-Nov-15 05:31N 44°20' E 028°38'0 0.0
2017-Nov-15 05:00N 44°20' E 028°38'0 0.0
2017-Nov-15 04:31N 44°20' E 028°38'0 0.0
2017-Nov-15 04:01N 44°20' E 028°38'0 0.0
2017-Nov-15 03:31N 44°20' E 028°38'0 0.0
2017-Nov-15 03:01N 44°20' E 028°38'0 0.0
2017-Nov-15 02:31N 44°20' E 028°38'0 0.0
2017-Nov-15 02:01N 44°20' E 028°38'0 0.0
2017-Nov-15 01:31N 44°20' E 028°38'0 0.0
2017-Nov-15 01:01N 44°20' E 028°38'0 0.0
2017-Nov-15 00:31N 44°20' E 028°38'0 0.0
2017-Nov-15 00:00N 44°20' E 028°38'0 0.0
2017-Nov-14 23:31N 44°20' E 028°38'0 0.0
2017-Nov-14 23:01N 44°20' E 028°38'0 0.0
2017-Nov-14 22:31N 44°20' E 028°38'0 0.0
2017-Nov-14 22:01N 44°20' E 028°38'0 0.0
2017-Nov-14 21:31N 44°20' E 028°38'0 0.0
2017-Nov-14 21:01N 44°20' E 028°38'0 0.0
2017-Nov-14 20:31N 44°20' E 028°38'0 0.0
2017-Nov-14 20:01N 44°20' E 028°38'0 0.0
2017-Nov-14 19:31N 44°20' E 028°38'0 0.0
2017-Nov-14 19:01N 44°20' E 028°38'0 0.0
2017-Nov-14 18:31N 44°20' E 028°38'0 0.0
2017-Nov-14 18:01N 44°20' E 028°38'0 0.0
2017-Nov-14 17:31N 44°20' E 028°38'0 0.0
2017-Nov-14 17:01N 44°20' E 028°38'0 0.0
2017-Nov-14 16:31N 44°20' E 028°38'0 0.0
2017-Nov-14 16:00N 44°20' E 028°38'0 0.0
2017-Nov-14 15:31N 44°20' E 028°38'0 0.0
2017-Nov-14 15:01N 44°20' E 028°38'0 0.0
2017-Nov-14 14:31N 44°20' E 028°38'0 0.0
2017-Nov-14 14:01N 44°20' E 028°38'0 0.0
2017-Nov-14 13:31N 44°20' E 028°38'0 0.0
2017-Nov-14 13:01N 44°20' E 028°38'0 0.0
2017-Nov-14 12:31N 44°20' E 028°38'0 0.0
2017-Nov-14 12:01N 44°20' E 028°38'2 4.0
2017-Nov-14 11:30N 44°20' E 028°41'0 0.7
2017-Nov-14 11:01N 44°21' E 028°41'0 0.1
2017-Nov-14 10:31N 44°21' E 028°41'2 5.0
2017-Nov-14 10:01N 44°18' E 028°42'3 5.5
2017-Nov-14 09:31N 44°16' E 028°43'2 3.1
2017-Nov-14 09:01N 44°14' E 028°43'  
Track history (hours):
 
Tides and Currents Weather Stations Pressure Air Temp Water Temp Dewpoint Dewpoint Depression Visibility Wind Speed Wind Dir Waves Ship Positions

Flamingo 4

Last reported at 2017-Nov-24 09:00 UTC. Time now 2017-Nov-24 09:25 UTC.
Position N 44°20' E 028°38'.

Length 25 m.

Type: Fishing. MMSI: 264900113.

Date/timePositionNaut miles runAvg speedWind from/ knotsBaromVisibWave heightAir tempDewpointWater temp
2017-Nov-24 09:00N 44°20' E 028°38'0 0.0
2017-Nov-24 08:30N 44°20' E 028°38'0 0.0
2017-Nov-24 08:00N 44°20' E 028°38'0 0.0
2017-Nov-24 07:30N 44°20' E 028°38'0 0.0
2017-Nov-24 07:00N 44°20' E 028°38'0 0.0
2017-Nov-24 06:30N 44°20' E 028°38'0 0.0
2017-Nov-24 06:00N 44°20' E 028°38'0 0.0
2017-Nov-24 05:30N 44°20' E 028°38'0 0.0
2017-Nov-24 05:00N 44°20' E 028°38'0 0.0
2017-Nov-24 04:30N 44°20' E 028°38'0 0.4
2017-Nov-24 04:00N 44°20' E 028°39'3 6.5
2017-Nov-24 03:30N 44°19' E 028°43'4 8.7
2017-Nov-24 03:00N 44°22' E 028°48'4 8.5
2017-Nov-24 02:30N 44°25' E 028°53'4 8.4
2017-Nov-24 02:00N 44°27' E 028°57'4 8.4
2017-Nov-24 01:30N 44°30' E 029°02'4 8.4
2017-Nov-24 01:00N 44°33' E 029°07'  
2017-Nov-20 00:31N 44°20' E 028°38'0 0.0
2017-Nov-20 00:01N 44°20' E 028°38'0 0.0
2017-Nov-19 23:31N 44°20' E 028°38'0 0.0
2017-Nov-19 23:01N 44°20' E 028°38'0 0.0
2017-Nov-19 22:31N 44°20' E 028°38'0 0.0
2017-Nov-19 22:01N 44°20' E 028°38'0 0.0
2017-Nov-19 21:31N 44°20' E 028°38'0 0.0
2017-Nov-19 21:01N 44°20' E 028°38'0 0.0
2017-Nov-19 20:31N 44°20' E 028°38'0 0.0
2017-Nov-19 20:01N 44°20' E 028°38'0 0.0
2017-Nov-19 19:30N 44°20' E 028°38'0 0.0
2017-Nov-19 19:00N 44°20' E 028°38'0 0.0
2017-Nov-19 18:31N 44°20' E 028°38'0 0.0
2017-Nov-19 18:00N 44°20' E 028°38'0 0.0
2017-Nov-19 17:31N 44°20' E 028°38'0 0.0
2017-Nov-19 17:01N 44°20' E 028°38'0 0.0
2017-Nov-19 16:30N 44°20' E 028°38'0 0.0
2017-Nov-19 16:01N 44°20' E 028°38'0 0.0
2017-Nov-19 15:31N 44°20' E 028°38'0 0.0
2017-Nov-19 15:01N 44°20' E 028°38'0 0.0
2017-Nov-19 14:31N 44°20' E 028°38'0 0.0
2017-Nov-19 14:01N 44°20' E 028°38'0 0.0
2017-Nov-19 13:30N 44°20' E 028°38'0 0.0
2017-Nov-19 13:01N 44°20' E 028°38'0 0.0
2017-Nov-19 12:31N 44°20' E 028°38'0 0.0
2017-Nov-19 12:01N 44°20' E 028°38'0 0.0
2017-Nov-19 11:31N 44°20' E 028°38'0 0.0
2017-Nov-19 11:01N 44°20' E 028°38'0 0.0
2017-Nov-19 10:30N 44°20' E 028°38'0 0.0
2017-Nov-19 10:01N 44°20' E 028°38'0 0.0
2017-Nov-19 09:31N 44°20' E 028°38'0 0.0
2017-Nov-19 09:01N 44°20' E 028°38'0 0.0
2017-Nov-19 08:30N 44°20' E 028°38'0 0.0
2017-Nov-19 08:01N 44°20' E 028°38'0 0.0
2017-Nov-19 07:30N 44°20' E 028°38'0 0.0
2017-Nov-19 07:01N 44°20' E 028°38'0 0.0
2017-Nov-19 06:31N 44°20' E 028°38'0 0.0
2017-Nov-19 06:01N 44°20' E 028°38'0 0.0
2017-Nov-19 05:31N 44°20' E 028°38'0 0.0
2017-Nov-19 05:01N 44°20' E 028°38'0 0.0
2017-Nov-19 04:30N 44°20' E 028°38'0 0.0
2017-Nov-19 04:01N 44°20' E 028°38'0 0.0
2017-Nov-19 03:31N 44°20' E 028°38'0 0.0
2017-Nov-19 03:01N 44°20' E 028°38'0 0.0
2017-Nov-19 02:31N 44°20' E 028°38'0 0.0
2017-Nov-19 02:01N 44°20' E 028°38'0 0.0
2017-Nov-19 01:30N 44°20' E 028°38'0 1.0
2017-Nov-19 01:01N 44°20' E 028°39'3 6.3
2017-Nov-19 00:31N 44°20' E 028°43'4 8.7
2017-Nov-19 00:01N 44°23' E 028°48'4 8.9
2017-Nov-18 23:31N 44°26' E 028°53'4 9.0
2017-Nov-18 23:01N 44°29' E 028°57'5 9.0
2017-Nov-18 22:31N 44°32' E 029°02'8 1.2
2017-Nov-18 16:06N 44°38' E 029°09'1 3.4
2017-Nov-18 15:54N 44°37' E 029°08'5 0.7
2017-Nov-18 08:33N 44°33' E 029°05'1 7.1
2017-Nov-18 08:28N 44°33' E 029°04'3 7.1
2017-Nov-18 08:00N 44°31' E 029°01'4 7.1
2017-Nov-18 07:29N 44°28' E 028°57'3 6.9
2017-Nov-18 07:00N 44°26' E 028°54'4 7.3
2017-Nov-18 06:31N 44°23' E 028°50'4 7.3
2017-Nov-18 06:01N 44°21' E 028°46'4 7.2
2017-Nov-18 05:31N 44°19' E 028°42'3 5.5
2017-Nov-18 05:01N 44°20' E 028°38'0 0.0
2017-Nov-18 04:31N 44°20' E 028°38'0 0.0
2017-Nov-18 04:01N 44°20' E 028°38'0 0.0
2017-Nov-18 03:31N 44°20' E 028°38'0 0.0
2017-Nov-18 03:01N 44°20' E 028°38'0 0.0
2017-Nov-18 02:30N 44°20' E 028°38'0 0.0
2017-Nov-18 02:00N 44°20' E 028°38'0 0.0
2017-Nov-18 01:30N 44°20' E 028°38'0 0.0
2017-Nov-18 01:01N 44°20' E 028°38'0 0.0
2017-Nov-18 00:31N 44°20' E 028°38'0 0.0
2017-Nov-18 00:01N 44°20' E 028°38'0 0.0
2017-Nov-17 23:31N 44°20' E 028°38'0 0.0
2017-Nov-17 23:00N 44°20' E 028°38'0 0.0
2017-Nov-17 22:31N 44°20' E 028°38'0 0.0
2017-Nov-17 22:01N 44°20' E 028°38'0 0.0
2017-Nov-17 21:31N 44°20' E 028°38'0 0.0
2017-Nov-17 21:00N 44°20' E 028°38'0 0.0
2017-Nov-17 20:31N 44°20' E 028°38'0 0.0
2017-Nov-17 20:00N 44°20' E 028°38'0 0.0
2017-Nov-17 19:31N 44°20' E 028°38'0 0.0
2017-Nov-17 19:00N 44°20' E 028°38'0 0.0
2017-Nov-17 18:31N 44°20' E 028°38'0 0.0
2017-Nov-17 18:01N 44°20' E 028°38'0 0.0
2017-Nov-17 17:31N 44°20' E 028°38'0 0.0
2017-Nov-17 17:01N 44°20' E 028°38'0 0.0
2017-Nov-17 16:31N 44°20' E 028°38'0 0.0
2017-Nov-17 16:01N 44°20' E 028°38'0 0.0
2017-Nov-17 15:31N 44°20' E 028°38'0 0.0
2017-Nov-17 15:01N 44°20' E 028°38'0 0.0
2017-Nov-17 14:31N 44°20' E 028°38'0 0.0
2017-Nov-17 14:01N 44°20' E 028°38'0 0.0
2017-Nov-17 13:31N 44°20' E 028°38'0 0.0
2017-Nov-17 13:00N 44°20' E 028°38'0 0.0
2017-Nov-17 12:31N 44°20' E 028°38'0 0.0
2017-Nov-17 12:01N 44°20' E 028°38'0 0.0
2017-Nov-17 11:31N 44°20' E 028°38'0 0.0
2017-Nov-17 11:01N 44°20' E 028°38'0 0.0
2017-Nov-17 10:31N 44°20' E 028°38'0 0.0
2017-Nov-17 10:01N 44°20' E 028°38'0 0.0
2017-Nov-17 09:31N 44°20' E 028°38'0 0.0
2017-Nov-17 09:01N 44°20' E 028°38'0 0.0
2017-Nov-17 08:31N 44°20' E 028°38'0 0.0
2017-Nov-17 08:01N 44°20' E 028°38'0 0.0
2017-Nov-17 07:30N 44°20' E 028°38'0 0.0
2017-Nov-17 07:01N 44°20' E 028°38'0 0.0
2017-Nov-17 06:31N 44°20' E 028°38'0 0.0
2017-Nov-17 06:01N 44°20' E 028°38'0 0.0
2017-Nov-17 05:31N 44°20' E 028°38'0 0.0
2017-Nov-17 05:01N 44°20' E 028°38'0 0.0
2017-Nov-17 04:31N 44°20' E 028°38'0 0.0
2017-Nov-17 04:01N 44°20' E 028°38'0 0.0
2017-Nov-17 03:31N 44°20' E 028°38'0 0.0
2017-Nov-17 03:01N 44°20' E 028°38'0 0.0
2017-Nov-17 02:31N 44°20' E 028°38'0 0.0
2017-Nov-17 02:01N 44°20' E 028°38'0 0.0
2017-Nov-17 01:31N 44°20' E 028°38'0 0.0
2017-Nov-17 01:00N 44°20' E 028°38'0 0.0
2017-Nov-17 00:31N 44°20' E 028°38'0 0.0
2017-Nov-17 00:00N 44°20' E 028°38'0 0.0
2017-Nov-16 23:31N 44°20' E 028°38'0 0.0
2017-Nov-16 23:01N 44°20' E 028°38'0 0.0
2017-Nov-16 22:31N 44°20' E 028°38'0 0.0
2017-Nov-16 22:01N 44°20' E 028°38'0 0.0
2017-Nov-16 21:31N 44°20' E 028°38'0 0.0
2017-Nov-16 21:00N 44°20' E 028°38'0 0.0
2017-Nov-16 20:31N 44°20' E 028°38'0 0.0
2017-Nov-16 20:01N 44°20' E 028°38'0 0.0
2017-Nov-16 19:31N 44°20' E 028°38'0 0.0
2017-Nov-16 19:01N 44°20' E 028°38'0 0.0
2017-Nov-16 18:31N 44°20' E 028°38'0 0.0
2017-Nov-16 18:01N 44°20' E 028°38'0 0.0
2017-Nov-16 17:31N 44°20' E 028°38'0 0.0
2017-Nov-16 17:01N 44°20' E 028°38'0 0.0
2017-Nov-16 16:31N 44°20' E 028°38'0 0.0
2017-Nov-16 16:01N 44°20' E 028°38'0 0.0
2017-Nov-16 15:30N 44°20' E 028°38'0 0.0
2017-Nov-15 06:55N 44°20' E 028°38'0 0.0
2017-Nov-15 06:31N 44°20' E 028°38'0 0.0
2017-Nov-15 06:01N 44°20' E 028°38'0 0.0
2017-Nov-15 05:31N 44°20' E 028°38'0 0.0
2017-Nov-15 05:00N 44°20' E 028°38'0 0.0
2017-Nov-15 04:31N 44°20' E 028°38'0 0.0
2017-Nov-15 04:01N 44°20' E 028°38'0 0.0
2017-Nov-15 03:31N 44°20' E 028°38'0 0.0
2017-Nov-15 03:01N 44°20' E 028°38'0 0.0
2017-Nov-15 02:31N 44°20' E 028°38'0 0.0
2017-Nov-15 02:01N 44°20' E 028°38'0 0.0
2017-Nov-15 01:31N 44°20' E 028°38'0 0.0
2017-Nov-15 01:01N 44°20' E 028°38'0 0.0
2017-Nov-15 00:31N 44°20' E 028°38'0 0.0
2017-Nov-15 00:00N 44°20' E 028°38'0 0.0
2017-Nov-14 23:31N 44°20' E 028°38'0 0.0
2017-Nov-14 23:01N 44°20' E 028°38'0 0.0
2017-Nov-14 22:31N 44°20' E 028°38'0 0.0
2017-Nov-14 22:01N 44°20' E 028°38'0 0.0
2017-Nov-14 21:31N 44°20' E 028°38'0 0.0
2017-Nov-14 21:01N 44°20' E 028°38'0 0.0
2017-Nov-14 20:31N 44°20' E 028°38'0 0.0
2017-Nov-14 20:01N 44°20' E 028°38'0 0.0
2017-Nov-14 19:31N 44°20' E 028°38'0 0.0
2017-Nov-14 19:01N 44°20' E 028°38'0 0.0
2017-Nov-14 18:31N 44°20' E 028°38'0 0.0
2017-Nov-14 18:01N 44°20' E 028°38'0 0.0
2017-Nov-14 17:31N 44°20' E 028°38'0 0.0
2017-Nov-14 17:01N 44°20' E 028°38'0 0.0
2017-Nov-14 16:31N 44°20' E 028°38'0 0.0
2017-Nov-14 16:00N 44°20' E 028°38'0 0.0
2017-Nov-14 15:31N 44°20' E 028°38'0 0.0
2017-Nov-14 15:01N 44°20' E 028°38'0 0.0
2017-Nov-14 14:31N 44°20' E 028°38'0 0.0
2017-Nov-14 14:01N 44°20' E 028°38'0 0.0
2017-Nov-14 13:31N 44°20' E 028°38'0 0.0
2017-Nov-14 13:01N 44°20' E 028°38'0 0.0
2017-Nov-14 12:31N 44°20' E 028°38'0 0.0
2017-Nov-14 12:01N 44°20' E 028°38'2 4.0
2017-Nov-14 11:30N 44°20' E 028°41'0 0.7
2017-Nov-14 11:01N 44°21' E 028°41'0 0.1
2017-Nov-14 10:31N 44°21' E 028°41'2 5.0
2017-Nov-14 10:01N 44°18' E 028°42'3 5.5
2017-Nov-14 09:31N 44°16' E 028°43'2 3.1
2017-Nov-14 09:01N 44°14' E 028°43'  

Dump ship's entire track history